Airfield :
LOGIN :

Register | Disclaimer

   EN    FR    IT 

 










Legend :    VFR   Marginal VFR   IFR   Intensive IFR   Very Intensive IFR
Visi :
Ceiling :
>= 8 km
>= 3000ft
5 to 8 km
1000 to 3000 ft
1500m to 5 km
500 to 1000 ft
800 to 1500m
200 to 500 ft
< 800m
< 200 ft
Symbols :   Thunderstorms  Fog  Heavy snow  Heavy precipitations  Wind > 20 kt
SIGMETs :     Misc.  Thunderstorms  Icing  Turbulence  Mountain Waves  Volcanic Ashes






- Airport Elevation : 242 ft
- IATA code : DUB


EIDW - Dublin

CURRENT METAR :
  • 172300Z VRB03KT CAVOK 08/05 Q0993 NOSIG

EXPIRED METARs :
  • 172230Z 16005KT CAVOK 08/05 Q0994 NOSIG
  • 172200Z 18004KT CAVOK 08/05 Q0994 NOSIG
  • 172130Z 16006KT 120V190 CAVOK 08/05 Q0993 NOSIG
  • 172100Z 20005KT 140V240 CAVOK 08/06 Q0993 NOSIG
  • 172030Z 21009KT 170V250 9999 FEW017 08/05 Q0993 NOSIG

TAF TAF EIDW
Valid from the 17 at 18:00 until the 18 at 18:00 UTC


171700Z 1718/1818 21006KT 9999 FEW020
PROB40
TEMPO 1802/1807 3000 BR
BECMG 1806/1808 13005KT
BECMG 1812/1814 20005KT



MET'MAP, your aeronautical weather chart ! - Copyright ORBIFLY December 2007 - Disclaimer

ORBIFLY MET'MAP TEAM :

Programming & Development : Alexandra Zaïnal
Concept & Development : Baudouin d'Aumeries
Co-Development & Prog : Marc-Olivier Méhu
Technical & hardware support : Manuel Goepfert

Contact : metmap@orbifly.com




SOURCES & CREDITS :

   NOAA